createdAt,value
2023-01-22T00:00:11.198Z,0.60
2023-01-22T00:00:43.953Z,0.60
2023-01-22T00:01:16.919Z,0.60
2023-01-22T00:01:49.704Z,0.60
2023-01-22T00:02:21.551Z,0.60
2023-01-22T00:02:53.392Z,0.70
2023-01-22T00:03:26.232Z,0.70
2023-01-22T00:03:58.139Z,0.70
2023-01-22T00:04:31.320Z,0.70
2023-01-22T00:05:03.318Z,0.60
2023-01-22T00:05:35.163Z,0.60
2023-01-22T00:06:08.400Z,0.50
2023-01-22T00:06:40.210Z,0.60
2023-01-22T00:07:12.669Z,0.50
2023-01-22T00:07:45.464Z,0.50
2023-01-22T00:08:17.235Z,0.50
2023-01-22T00:08:49.159Z,0.50
2023-01-22T00:09:22.292Z,0.50
2023-01-22T00:09:54.066Z,0.60
2023-01-22T00:10:25.934Z,0.60
2023-01-22T00:10:58.912Z,0.50
2023-01-22T00:11:30.859Z,0.50
2023-01-22T00:12:02.673Z,0.50
2023-01-22T00:12:37.385Z,0.50
2023-01-22T00:13:09.163Z,0.50
2023-01-22T00:13:41.460Z,0.50
2023-01-22T00:14:14.349Z,0.50
2023-01-22T00:14:46.346Z,0.50
2023-01-22T00:15:18.188Z,0.50
2023-01-22T00:15:51.455Z,0.50
2023-01-22T00:16:23.307Z,0.50
2023-01-22T00:16:55.185Z,0.60
2023-01-22T00:17:27.969Z,0.60
2023-01-22T00:17:59.812Z,0.70
2023-01-22T00:18:31.955Z,0.60
2023-01-22T00:19:04.693Z,0.60
2023-01-22T00:19:36.479Z,0.60
2023-01-22T00:20:11.270Z,0.50
2023-01-22T00:20:48.288Z,0.50
2023-01-22T00:21:20.097Z,0.40
2023-01-22T00:21:51.937Z,0.40
2023-01-22T00:22:24.719Z,0.40
2023-01-22T00:22:56.522Z,0.50
2023-01-22T00:23:28.309Z,0.40
2023-01-22T00:24:01.147Z,0.40
2023-01-22T00:24:32.965Z,0.50
2023-01-22T00:25:05.810Z,0.50
2023-01-22T00:25:38.658Z,0.50
2023-01-22T00:26:12.871Z,0.50
2023-01-22T00:26:45.142Z,0.50
2023-01-22T00:27:17.924Z,0.50
2023-01-22T00:27:51.099Z,0.60
2023-01-22T00:28:22.876Z,0.60
2023-01-22T00:28:55.653Z,0.60
2023-01-22T00:29:27.500Z,0.60
2023-01-22T00:29:59.310Z,0.60
2023-01-22T00:30:32.082Z,0.60
2023-01-22T00:31:05.907Z,0.60
2023-01-22T00:31:38.254Z,0.60
2023-01-22T00:32:11.379Z,0.60
2023-01-22T00:32:43.243Z,0.60
2023-01-22T00:33:15.057Z,0.60
2023-01-22T00:33:48.268Z,0.60
2023-01-22T00:34:20.102Z,0.60
2023-01-22T00:34:52.585Z,0.60
2023-01-22T00:35:25.485Z,0.70
2023-01-22T00:36:02.993Z,0.70
2023-01-22T00:36:34.962Z,0.70
2023-01-22T00:37:07.731Z,0.70
2023-01-22T00:37:39.677Z,0.70
2023-01-22T00:38:11.469Z,0.70
2023-01-22T00:38:44.503Z,0.70
2023-01-22T00:39:16.266Z,0.70
2023-01-22T00:39:48.058Z,0.70
2023-01-22T00:40:21.027Z,0.70
2023-01-22T00:40:52.805Z,0.70
2023-01-22T00:41:24.609Z,0.70
2023-01-22T00:41:57.365Z,0.70
2023-01-22T00:42:29.202Z,0.70
2023-01-22T00:43:02.357Z,0.80
2023-01-22T00:43:38.498Z,0.70
2023-01-22T00:44:10.285Z,0.70
2023-01-22T00:44:42.121Z,0.70
2023-01-22T00:45:15.529Z,0.70
2023-01-22T00:45:47.531Z,0.60
2023-01-22T00:46:19.391Z,0.70
2023-01-22T00:46:52.654Z,0.60
2023-01-22T00:47:24.559Z,0.60
2023-01-22T00:47:56.362Z,0.60
2023-01-22T00:48:29.232Z,0.60
2023-01-22T00:49:03.460Z,0.60
2023-01-22T00:49:35.249Z,0.60
2023-01-22T00:50:09.578Z,0.50
2023-01-22T00:50:41.402Z,0.50
2023-01-22T00:51:14.748Z,0.50
2023-01-22T00:51:47.618Z,0.60
2023-01-22T00:52:19.410Z,0.60
2023-01-22T00:52:51.488Z,0.60
2023-01-22T00:53:24.336Z,0.60
2023-01-22T00:53:56.247Z,0.60
2023-01-22T00:54:29.744Z,0.60
2023-01-22T00:55:02.606Z,0.60
2023-01-22T00:55:34.495Z,0.60
2023-01-22T00:56:07.398Z,0.60
2023-01-22T00:56:40.171Z,0.60
2023-01-22T00:57:11.939Z,0.60
2023-01-22T00:57:43.769Z,0.60
2023-01-22T00:58:17.894Z,0.50
2023-01-22T00:58:49.723Z,0.50
2023-01-22T00:59:21.542Z,0.50
2023-01-22T00:59:54.492Z,0.50
2023-01-22T01:00:26.450Z,0.50
2023-01-22T01:00:58.338Z,0.60
2023-01-22T01:01:31.133Z,0.50
2023-01-22T01:02:02.995Z,0.50
2023-01-22T01:02:56.182Z,0.50
2023-01-22T01:03:30.168Z,0.50
2023-01-22T01:04:02.930Z,0.40
2023-01-22T01:04:34.743Z,0.40
2023-01-22T01:05:07.198Z,0.40
2023-01-22T01:05:39.963Z,0.50
2023-01-22T01:06:14.565Z,0.50
2023-01-22T01:06:47.377Z,0.50
2023-01-22T01:07:19.163Z,0.60
2023-01-22T01:07:51.137Z,0.60
2023-01-22T01:08:24.763Z,0.60
2023-01-22T01:08:57.145Z,0.60
2023-01-22T01:09:29.952Z,0.70
2023-01-22T01:10:01.790Z,0.70
2023-01-22T01:10:33.604Z,0.80
2023-01-22T01:11:08.093Z,0.80
2023-01-22T01:11:40.024Z,0.80
2023-01-22T01:12:11.854Z,0.80
2023-01-22T01:12:44.635Z,0.80
2023-01-22T01:13:17.758Z,0.90
2023-01-22T01:13:50.929Z,0.90
2023-01-22T01:14:23.753Z,0.90
2023-01-22T01:14:56.324Z,0.90
2023-01-22T01:15:28.178Z,1.00
2023-01-22T01:16:02.416Z,1.00
2023-01-22T01:16:35.417Z,1.00
2023-01-22T01:17:08.154Z,1.00
2023-01-22T01:17:40.031Z,1.00
2023-01-22T01:18:14.141Z,1.00
2023-01-22T01:18:46.437Z,1.00
2023-01-22T01:19:20.397Z,1.10
2023-01-22T01:19:52.181Z,1.10
2023-01-22T01:20:24.006Z,1.10
2023-01-22T01:20:56.076Z,1.00
2023-01-22T01:21:29.817Z,1.10
2023-01-22T01:22:01.688Z,1.10
2023-01-22T01:22:33.566Z,1.10
2023-01-22T01:23:05.378Z,1.10
2023-01-22T01:23:38.299Z,1.00
2023-01-22T01:24:10.860Z,1.00
2023-01-22T01:24:43.652Z,1.00
2023-01-22T01:25:15.449Z,1.00
2023-01-22T01:25:47.257Z,1.00
2023-01-22T01:26:20.030Z,1.00
2023-01-22T01:26:51.907Z,1.00
2023-01-22T01:27:23.697Z,1.10
2023-01-22T01:27:56.458Z,1.00
2023-01-22T01:28:29.568Z,1.00
2023-01-22T01:29:04.203Z,1.00
2023-01-22T01:29:35.998Z,1.00
2023-01-22T01:30:09.080Z,1.00
2023-01-22T01:30:41.990Z,1.00
2023-01-22T01:31:16.510Z,0.90
2023-01-22T01:31:53.089Z,0.90
2023-01-22T01:32:25.983Z,0.90
2023-01-22T01:32:58.467Z,0.90
2023-01-22T01:33:30.282Z,0.80
2023-01-22T01:34:03.420Z,0.80
2023-01-22T01:34:35.250Z,0.80
2023-01-22T01:35:07.768Z,0.80
2023-01-22T01:35:41.134Z,0.80
2023-01-22T01:36:15.243Z,0.80
2023-01-22T01:36:49.596Z,0.80
2023-01-22T01:37:21.686Z,0.80
2023-01-22T01:37:53.531Z,0.90
2023-01-22T01:38:25.423Z,0.90
2023-01-22T01:38:58.549Z,0.80
2023-01-22T01:39:30.349Z,0.80
2023-01-22T01:40:02.182Z,0.80
2023-01-22T01:40:35.429Z,0.80
2023-01-22T01:41:07.548Z,0.90
2023-01-22T01:41:39.344Z,0.90
2023-01-22T01:42:12.100Z,0.90
2023-01-22T01:42:43.925Z,0.90
2023-01-22T01:43:17.046Z,0.90
2023-01-22T01:44:10.102Z,0.90
2023-01-22T01:44:42.823Z,0.80
2023-01-22T01:45:29.859Z,0.80
2023-01-22T01:46:04.429Z,0.80
2023-01-22T01:46:38.132Z,0.80
2023-01-22T01:47:27.818Z,0.70
2023-01-22T01:48:11.686Z,0.80
2023-01-22T01:48:46.633Z,0.80
2023-01-22T01:49:26.105Z,0.70
2023-01-22T01:49:57.943Z,0.80
2023-01-22T01:50:29.929Z,0.80
2023-01-22T01:51:06.961Z,0.80
2023-01-22T01:51:38.802Z,0.80
2023-01-22T01:52:13.971Z,0.80
2023-01-22T01:52:45.986Z,0.90
2023-01-22T01:53:17.901Z,0.90
2023-01-22T01:53:52.489Z,0.90
2023-01-22T01:54:24.601Z,0.90
2023-01-22T01:54:57.940Z,0.90
2023-01-22T01:55:33.754Z,0.90
2023-01-22T01:56:09.773Z,1.00
2023-01-22T01:56:45.423Z,1.00
2023-01-22T01:57:23.487Z,1.00
2023-01-22T01:57:58.422Z,1.00
2023-01-22T01:58:34.077Z,1.10
2023-01-22T01:59:12.818Z,1.10
2023-01-22T01:59:47.554Z,1.10
2023-01-22T02:00:20.373Z,1.10
2023-01-22T02:00:56.915Z,1.10
2023-01-22T02:01:29.109Z,1.10
2023-01-22T02:02:02.993Z,1.00
2023-01-22T02:02:35.758Z,1.00
2023-01-22T02:03:07.581Z,1.00
2023-01-22T02:03:40.371Z,1.00
2023-01-22T02:04:13.149Z,1.00
2023-01-22T02:04:44.923Z,1.00
2023-01-22T02:05:20.466Z,1.00
2023-01-22T02:05:53.623Z,1.00
2023-01-22T02:06:25.487Z,1.00
2023-01-22T02:06:57.473Z,1.00
2023-01-22T02:07:30.349Z,1.00
2023-01-22T02:08:02.460Z,1.00
2023-01-22T02:08:35.999Z,0.90
2023-01-22T02:09:07.954Z,0.90
2023-01-22T02:09:39.754Z,0.90
2023-01-22T02:10:12.552Z,0.90
2023-01-22T02:10:45.316Z,0.90
2023-01-22T02:11:18.852Z,1.00
2023-01-22T02:11:52.962Z,1.00
2023-01-22T02:12:24.886Z,1.00
2023-01-22T02:13:01.222Z,1.00
2023-01-22T02:13:36.718Z,1.00
2023-01-22T02:14:12.475Z,0.90
2023-01-22T02:14:45.825Z,0.90
2023-01-22T02:15:18.079Z,0.80
2023-01-22T02:15:50.855Z,0.80
2023-01-22T02:16:22.831Z,0.80
2023-01-22T02:17:02.028Z,0.80
2023-01-22T02:17:34.897Z,0.70
2023-01-22T02:18:07.219Z,0.70
2023-01-22T02:18:39.509Z,0.70
2023-01-22T02:19:12.566Z,0.70
2023-01-22T02:19:44.393Z,0.80
2023-01-22T02:20:16.834Z,0.80
2023-01-22T02:20:56.558Z,0.80
2023-01-22T02:21:31.616Z,0.80
2023-01-22T02:22:03.551Z,0.90
2023-01-22T02:22:39.730Z,0.90
2023-01-22T02:23:11.613Z,0.90
2023-01-22T02:23:43.396Z,0.90
2023-01-22T02:24:17.913Z,0.90
2023-01-22T02:24:49.894Z,0.90
2023-01-22T02:25:22.504Z,0.90
2023-01-22T02:25:55.831Z,0.90
2023-01-22T02:26:27.989Z,0.90
2023-01-22T02:26:59.902Z,0.90
2023-01-22T02:27:32.677Z,0.90
2023-01-22T02:28:04.751Z,0.90
2023-01-22T02:28:36.679Z,0.80
2023-01-22T02:29:11.000Z,0.80
2023-01-22T02:29:42.964Z,0.80
2023-01-22T02:30:15.573Z,0.90
2023-01-22T02:30:48.448Z,0.90
2023-01-22T02:31:20.388Z,0.90
2023-01-22T02:31:52.362Z,0.90
2023-01-22T02:32:25.244Z,0.90
2023-01-22T02:32:57.120Z,0.90
2023-01-22T02:33:28.940Z,0.90
2023-01-22T02:34:02.799Z,0.90
2023-01-22T02:34:34.833Z,0.80
2023-01-22T02:35:07.390Z,0.90
2023-01-22T02:35:40.335Z,0.90
2023-01-22T02:36:13.541Z,0.90
2023-01-22T02:36:45.473Z,1.00
2023-01-22T02:37:18.566Z,1.00
2023-01-22T02:37:50.382Z,1.00
2023-01-22T02:38:22.150Z,1.00
2023-01-22T02:38:54.137Z,1.00
2023-01-22T02:39:26.979Z,0.90
2023-01-22T02:39:58.735Z,1.20
2023-01-22T02:40:30.525Z,0.90
2023-01-22T02:41:03.305Z,1.00
2023-01-22T02:41:35.191Z,0.90
2023-01-22T02:42:07.768Z,0.90
2023-01-22T02:42:40.588Z,0.90
2023-01-22T02:43:12.395Z,0.90
2023-01-22T02:43:44.214Z,0.80
2023-01-22T02:44:16.973Z,0.80
2023-01-22T02:44:50.072Z,0.80
2023-01-22T02:45:21.979Z,0.80
2023-01-22T02:45:55.075Z,0.80
2023-01-22T02:46:27.277Z,0.80
2023-01-22T02:46:59.210Z,0.80
2023-01-22T02:47:32.006Z,0.80
2023-01-22T02:48:04.195Z,0.80
2023-01-22T02:48:36.113Z,0.80
2023-01-22T02:49:08.965Z,0.80
2023-01-22T02:49:40.879Z,0.80
2023-01-22T02:50:12.826Z,0.70
2023-01-22T02:50:45.152Z,0.80
2023-01-22T02:51:19.358Z,0.70
2023-01-22T02:51:51.296Z,0.80
2023-01-22T02:52:24.117Z,0.80
2023-01-22T02:52:55.910Z,0.90
2023-01-22T02:53:27.740Z,0.90
2023-01-22T02:54:00.570Z,0.90
2023-01-22T02:54:32.708Z,0.90
2023-01-22T02:55:05.699Z,0.90
2023-01-22T02:55:39.361Z,0.90
2023-01-22T02:56:11.603Z,0.90
2023-01-22T02:56:43.535Z,0.90
2023-01-22T02:57:16.345Z,0.90
2023-01-22T02:57:48.165Z,0.90
2023-01-22T02:58:19.961Z,0.90
2023-01-22T02:58:52.716Z,0.90
2023-01-22T02:59:24.634Z,0.90
2023-01-22T02:59:56.472Z,0.90
2023-01-22T03:00:29.287Z,0.90
2023-01-22T03:01:08.221Z,0.90
2023-01-22T03:01:40.240Z,0.90
2023-01-22T03:02:13.143Z,1.00
2023-01-22T03:02:44.950Z,1.00
2023-01-22T03:03:16.754Z,1.00
2023-01-22T03:03:50.997Z,1.00
2023-01-22T03:04:23.072Z,1.10
2023-01-22T03:05:03.167Z,1.10
2023-01-22T03:05:36.105Z,1.10
2023-01-22T03:06:07.988Z,1.10
2023-01-22T03:06:42.861Z,1.10
2023-01-22T03:07:15.606Z,1.10
2023-01-22T03:07:47.519Z,1.10
2023-01-22T03:08:19.878Z,1.20
2023-01-22T03:08:54.407Z,1.20
2023-01-22T03:09:27.197Z,1.20
2023-01-22T03:09:58.977Z,1.20
2023-01-22T03:10:30.814Z,1.30
2023-01-22T03:11:03.606Z,1.30
2023-01-22T03:11:37.756Z,1.30
2023-01-22T03:12:09.761Z,1.30
2023-01-22T03:12:59.905Z,1.30
2023-01-22T03:13:50.741Z,1.40
2023-01-22T03:14:41.363Z,1.40
2023-01-22T03:15:31.914Z,1.40
2023-01-22T03:16:22.824Z,1.40
2023-01-22T03:17:13.665Z,1.40
2023-01-22T03:18:04.216Z,1.30
2023-01-22T03:18:54.708Z,1.40
2023-01-22T03:19:45.087Z,1.40
2023-01-22T03:20:35.280Z,1.30
2023-01-22T03:21:15.006Z,1.30
2023-01-22T03:21:48.180Z,1.30
2023-01-22T03:22:21.220Z,1.20
2023-01-22T03:22:53.054Z,1.20
2023-01-22T03:23:27.963Z,1.30
2023-01-22T03:24:00.741Z,1.30
2023-01-22T03:24:32.575Z,1.30
2023-01-22T03:25:05.048Z,1.40
2023-01-22T03:25:38.063Z,1.40
2023-01-22T03:26:10.124Z,1.40
2023-01-22T03:26:41.969Z,1.50
2023-01-22T03:27:14.791Z,1.50
2023-01-22T03:28:01.504Z,1.50
2023-01-22T03:28:33.418Z,1.50
2023-01-22T03:29:06.353Z,1.40
2023-01-22T03:29:38.277Z,1.40
2023-01-22T03:30:11.813Z,1.40
2023-01-22T03:30:44.563Z,1.40
2023-01-22T03:31:17.175Z,1.40
2023-01-22T03:31:49.215Z,1.40
2023-01-22T03:32:22.685Z,1.40
2023-01-22T03:32:55.263Z,1.40
2023-01-22T03:33:27.104Z,1.50
2023-01-22T03:33:58.999Z,1.50
2023-01-22T03:34:31.811Z,1.50
2023-01-22T03:35:04.434Z,1.50
2023-01-22T03:35:36.286Z,1.50
2023-01-22T03:36:10.527Z,1.50
2023-01-22T03:36:43.680Z,1.50
2023-01-22T03:37:16.902Z,1.50
2023-01-22T03:37:48.788Z,1.50
2023-01-22T03:38:21.569Z,1.50
2023-01-22T03:38:53.408Z,1.50
2023-01-22T03:39:26.296Z,1.40
2023-01-22T03:40:00.099Z,1.50
2023-01-22T03:40:31.898Z,1.40
2023-01-22T03:41:05.244Z,1.40
2023-01-22T03:41:38.439Z,1.40
2023-01-22T03:42:10.339Z,1.40
2023-01-22T03:42:42.146Z,1.40
2023-01-22T03:43:13.955Z,1.40
2023-01-22T03:43:47.336Z,1.40
2023-01-22T03:44:19.338Z,1.40
2023-01-22T03:44:51.126Z,1.40
2023-01-22T03:45:23.903Z,1.40
2023-01-22T03:46:01.237Z,1.40
2023-01-22T03:46:34.691Z,1.40
2023-01-22T03:47:06.515Z,1.40
2023-01-22T03:47:38.450Z,1.40
2023-01-22T03:48:11.217Z,1.40
2023-01-22T03:48:43.805Z,1.40
2023-01-22T03:49:16.048Z,1.30
2023-01-22T03:49:48.792Z,1.30
2023-01-22T03:50:20.735Z,1.30
2023-01-22T03:50:52.548Z,1.30
2023-01-22T03:51:25.867Z,1.30
2023-01-22T03:51:57.722Z,1.30
2023-01-22T03:52:30.861Z,1.30
2023-01-22T03:53:04.014Z,1.30
2023-01-22T03:53:36.962Z,1.30
2023-01-22T03:54:10.837Z,1.20
2023-01-22T03:54:42.634Z,1.20
2023-01-22T03:55:15.578Z,1.10
2023-01-22T03:55:55.720Z,1.10
2023-01-22T03:56:28.089Z,1.10
2023-01-22T03:57:00.958Z,1.10
2023-01-22T03:57:32.868Z,1.20
2023-01-22T03:58:04.740Z,1.10
2023-01-22T03:58:37.698Z,1.10
2023-01-22T03:59:10.361Z,1.10
2023-01-22T03:59:42.154Z,1.10
2023-01-22T04:00:16.055Z,1.10
2023-01-22T04:00:48.690Z,1.10
2023-01-22T04:01:22.551Z,1.10
2023-01-22T04:01:55.366Z,1.10
2023-01-22T04:02:27.282Z,1.10
2023-01-22T04:02:59.122Z,1.10
2023-01-22T04:03:32.090Z,1.20
2023-01-22T04:04:04.407Z,1.20
2023-01-22T04:04:36.192Z,1.20
2023-01-22T04:05:09.535Z,1.20
2023-01-22T04:05:41.379Z,1.20
2023-01-22T04:06:13.539Z,1.20
2023-01-22T04:06:46.346Z,1.20
2023-01-22T04:07:18.178Z,1.20
2023-01-22T04:07:51.561Z,1.20
2023-01-22T04:08:24.310Z,1.30
2023-01-22T04:08:56.612Z,1.30
2023-01-22T04:09:29.469Z,1.30
2023-01-22T04:10:01.261Z,1.30
2023-01-22T04:10:33.038Z,1.40
2023-01-22T04:11:06.148Z,1.40
2023-01-22T04:11:37.978Z,1.40
2023-01-22T04:12:09.813Z,1.50
2023-01-22T04:12:42.636Z,1.50
2023-01-22T04:13:14.812Z,1.50
2023-01-22T04:13:47.071Z,1.50
2023-01-22T04:14:19.863Z,1.50
2023-01-22T04:14:51.660Z,1.50
2023-01-22T04:15:23.491Z,1.50
2023-01-22T04:15:56.288Z,1.50
2023-01-22T04:16:28.230Z,1.50
2023-01-22T04:17:00.127Z,1.60
2023-01-22T04:17:32.875Z,1.60
2023-01-22T04:18:04.927Z,1.50
2023-01-22T04:18:36.815Z,1.50
2023-01-22T04:19:10.879Z,1.60
2023-01-22T04:19:42.707Z,1.60
2023-01-22T04:20:14.598Z,1.60
2023-01-22T04:20:49.322Z,1.60
2023-01-22T04:21:21.201Z,1.70
2023-01-22T04:21:52.987Z,1.70
2023-01-22T04:22:24.809Z,1.70
2023-01-22T04:22:59.087Z,1.70
2023-01-22T04:23:30.920Z,1.70
2023-01-22T04:24:02.802Z,1.70
2023-01-22T04:24:36.339Z,1.70
2023-01-22T04:25:08.808Z,1.70
2023-01-22T04:25:40.621Z,1.70
2023-01-22T04:26:13.547Z,1.70
2023-01-22T04:26:46.135Z,1.70
2023-01-22T04:27:17.959Z,1.70
2023-01-22T04:27:50.728Z,1.70
2023-01-22T04:28:22.608Z,1.70
2023-01-22T04:28:55.054Z,1.60
2023-01-22T04:29:27.829Z,1.60
2023-01-22T04:29:59.647Z,1.80
2023-01-22T04:30:31.510Z,1.60
2023-01-22T04:31:04.998Z,1.60
2023-01-22T04:31:36.949Z,1.60
2023-01-22T04:32:08.873Z,1.60
2023-01-22T04:32:41.618Z,1.60
2023-01-22T04:33:14.041Z,1.70
2023-01-22T04:33:46.803Z,1.70
2023-01-22T04:34:18.606Z,1.70
2023-01-22T04:34:50.430Z,1.70
2023-01-22T04:35:22.507Z,1.70
2023-01-22T04:35:56.366Z,1.70
2023-01-22T04:36:29.324Z,1.70
2023-01-22T04:37:01.218Z,1.70
2023-01-22T04:37:33.008Z,1.70
2023-01-22T04:38:08.377Z,1.80
2023-01-22T04:38:40.195Z,1.80
2023-01-22T04:39:13.015Z,1.80
2023-01-22T04:39:44.826Z,1.80
2023-01-22T04:40:17.275Z,1.80
2023-01-22T04:40:50.521Z,1.80
2023-01-22T04:41:22.320Z,1.80
2023-01-22T04:41:54.146Z,1.80
2023-01-22T04:42:27.151Z,1.80
2023-01-22T04:43:02.836Z,1.80
2023-01-22T04:43:34.649Z,1.80
2023-01-22T04:44:06.437Z,1.70
2023-01-22T04:44:38.258Z,1.70
2023-01-22T04:45:12.019Z,1.70
2023-01-22T04:45:43.946Z,1.70
2023-01-22T04:46:15.844Z,1.70
2023-01-22T04:46:48.685Z,1.70
2023-01-22T04:47:20.493Z,1.70
2023-01-22T04:47:52.322Z,1.70
2023-01-22T04:48:25.118Z,1.70
2023-01-22T04:48:56.940Z,1.70
2023-01-22T04:49:28.746Z,1.70
2023-01-22T04:50:01.592Z,1.60
2023-01-22T04:50:34.157Z,1.60
2023-01-22T04:51:06.247Z,1.60
2023-01-22T04:51:39.052Z,1.60
2023-01-22T04:52:10.881Z,1.60
2023-01-22T04:52:42.755Z,1.60
2023-01-22T04:53:16.897Z,1.60
2023-01-22T04:53:48.727Z,1.50
2023-01-22T04:54:20.648Z,1.60
2023-01-22T04:54:53.835Z,1.50
2023-01-22T04:55:26.394Z,1.50
2023-01-22T04:55:58.174Z,1.60
2023-01-22T04:56:30.945Z,1.50
2023-01-22T04:57:02.751Z,1.60
2023-01-22T04:57:34.544Z,1.60
2023-01-22T04:58:06.361Z,1.60
2023-01-22T04:58:39.221Z,1.60
2023-01-22T04:59:11.196Z,1.70
2023-01-22T04:59:43.018Z,1.70
2023-01-22T05:00:17.486Z,1.80
2023-01-22T05:00:49.460Z,1.80
2023-01-22T05:01:21.313Z,1.80
2023-01-22T05:01:54.155Z,1.80
2023-01-22T05:02:26.281Z,1.80
2023-01-22T05:02:59.824Z,1.80
2023-01-22T05:03:32.637Z,1.80
2023-01-22T05:04:04.736Z,1.80
2023-01-22T05:04:36.537Z,1.70
2023-01-22T05:05:10.564Z,1.70
2023-01-22T05:05:42.425Z,1.70
2023-01-22T05:06:14.287Z,1.70
2023-01-22T05:06:46.132Z,1.80
2023-01-22T05:07:18.893Z,1.70
2023-01-22T05:07:50.777Z,1.80
2023-01-22T05:08:23.950Z,1.80
2023-01-22T05:08:56.747Z,1.80
2023-01-22T05:09:28.538Z,1.80
2023-01-22T05:10:00.489Z,1.80
2023-01-22T05:10:33.289Z,1.80
2023-01-22T05:11:05.560Z,1.80
2023-01-22T05:11:37.357Z,1.80
2023-01-22T05:12:10.232Z,1.90
2023-01-22T05:12:42.018Z,1.90
2023-01-22T05:13:13.860Z,1.90
2023-01-22T05:13:46.597Z,1.90
2023-01-22T05:14:18.498Z,1.90
2023-01-22T05:14:50.273Z,1.90
2023-01-22T05:15:24.745Z,1.90
2023-01-22T05:15:57.136Z,1.90
2023-01-22T05:16:29.078Z,1.90
2023-01-22T05:17:01.890Z,1.90
2023-01-22T05:17:33.722Z,1.80
2023-01-22T05:18:05.559Z,1.80
2023-01-22T05:18:38.312Z,1.70
2023-01-22T05:19:10.112Z,1.70
2023-01-22T05:19:41.969Z,1.70
2023-01-22T05:20:15.134Z,1.70
2023-01-22T05:20:47.037Z,1.70
2023-01-22T05:21:18.853Z,1.70
2023-01-22T05:21:51.640Z,1.70
2023-01-22T05:22:23.507Z,1.70
2023-01-22T05:22:55.376Z,1.60
2023-01-22T05:23:29.476Z,1.70
2023-01-22T05:24:01.286Z,1.60
2023-01-22T05:24:33.108Z,1.60
2023-01-22T05:25:06.688Z,1.60
2023-01-22T05:25:38.517Z,1.60
2023-01-22T05:26:10.523Z,1.60
2023-01-22T05:26:43.310Z,1.60
2023-01-22T05:27:15.262Z,1.50
2023-01-22T05:27:47.052Z,1.50
2023-01-22T05:28:19.891Z,1.50
2023-01-22T05:28:51.940Z,1.50
2023-01-22T05:29:25.972Z,1.50
2023-01-22T05:29:58.755Z,1.50
2023-01-22T05:30:30.562Z,1.50
2023-01-22T05:31:02.573Z,1.50
2023-01-22T05:31:35.402Z,1.50
2023-01-22T05:32:08.049Z,1.50
2023-01-22T05:32:39.875Z,1.40
2023-01-22T05:33:12.660Z,1.40
2023-01-22T05:33:44.920Z,1.40
2023-01-22T05:34:16.827Z,1.40
2023-01-22T05:34:49.637Z,1.40
2023-01-22T05:35:22.487Z,1.40
2023-01-22T05:35:58.070Z,1.50
2023-01-22T05:36:31.037Z,1.50
2023-01-22T05:37:02.883Z,1.40
2023-01-22T05:37:34.716Z,1.40
2023-01-22T05:38:07.507Z,1.40
2023-01-22T05:38:40.702Z,1.40
2023-01-22T05:39:12.779Z,1.40
2023-01-22T05:39:45.517Z,1.50
2023-01-22T05:40:17.865Z,1.50
2023-01-22T05:40:49.810Z,1.50
2023-01-22T05:41:22.602Z,1.50
2023-01-22T05:41:54.869Z,1.60
2023-01-22T05:42:26.753Z,1.50
2023-01-22T05:42:59.511Z,1.50
2023-01-22T05:43:31.322Z,1.50
2023-01-22T05:44:03.623Z,1.60
2023-01-22T05:44:36.390Z,1.50
2023-01-22T05:45:10.069Z,1.60
2023-01-22T05:45:41.902Z,1.60
2023-01-22T05:46:14.722Z,1.60
2023-01-22T05:46:46.606Z,1.60
2023-01-22T05:47:18.595Z,1.60
2023-01-22T05:47:53.288Z,1.50
2023-01-22T05:48:25.089Z,1.50
2023-01-22T05:48:57.080Z,1.50
2023-01-22T05:49:29.875Z,1.50
2023-01-22T05:50:02.193Z,1.60
2023-01-22T05:50:34.000Z,1.60
2023-01-22T05:51:07.505Z,1.50
2023-01-22T05:51:40.282Z,1.50
2023-01-22T05:52:12.149Z,1.50
2023-01-22T05:52:43.980Z,1.50
2023-01-22T05:53:16.786Z,1.50
2023-01-22T05:53:49.995Z,1.60
2023-01-22T05:54:21.787Z,1.60
2023-01-22T05:54:54.615Z,1.50
2023-01-22T05:55:26.408Z,1.60
2023-01-22T05:56:00.726Z,1.50
2023-01-22T05:56:33.614Z,1.50
2023-01-22T05:57:06.067Z,1.50
2023-01-22T05:57:37.917Z,1.50
2023-01-22T05:58:10.684Z,1.50
2023-01-22T05:58:42.730Z,1.50
2023-01-22T05:59:14.735Z,1.40
2023-01-22T05:59:47.520Z,1.50
2023-01-22T06:00:20.063Z,1.50
2023-01-22T06:00:52.999Z,1.40
2023-01-22T06:01:26.417Z,1.40
2023-01-22T06:01:58.261Z,1.40
2023-01-22T06:02:30.155Z,1.40
2023-01-22T06:03:03.133Z,1.40
2023-01-22T06:03:34.990Z,1.40
2023-01-22T06:04:07.019Z,1.40
2023-01-22T06:04:39.808Z,1.40
2023-01-22T06:05:11.765Z,1.30
2023-01-22T06:05:43.590Z,1.40
2023-01-22T06:06:16.033Z,1.40
2023-01-22T06:06:48.796Z,1.40
2023-01-22T06:07:21.669Z,1.40
2023-01-22T06:07:53.665Z,1.50
2023-01-22T06:08:26.947Z,1.40
2023-01-22T06:09:00.175Z,1.40
2023-01-22T06:09:31.990Z,1.40
2023-01-22T06:10:05.155Z,1.40
2023-01-22T06:10:37.081Z,1.40
2023-01-22T06:11:12.196Z,1.30
2023-01-22T06:11:44.956Z,1.30
2023-01-22T06:12:18.392Z,1.30
2023-01-22T06:12:50.269Z,1.20
2023-01-22T06:13:23.034Z,1.20
2023-01-22T06:13:54.831Z,1.20
2023-01-22T06:14:27.633Z,1.20
2023-01-22T06:14:59.451Z,1.20
2023-01-22T06:15:31.268Z,1.20
2023-01-22T06:16:04.190Z,1.30
2023-01-22T06:16:36.426Z,1.30
2023-01-22T06:17:09.239Z,1.30
2023-01-22T06:17:41.051Z,1.30
2023-01-22T06:18:12.852Z,1.40
2023-01-22T06:18:45.665Z,1.30
2023-01-22T06:19:17.459Z,1.30
2023-01-22T06:19:49.284Z,1.30
2023-01-22T06:20:22.091Z,1.30
2023-01-22T06:20:58.243Z,1.40
2023-01-22T06:21:30.098Z,1.40
2023-01-22T06:22:02.890Z,1.40
2023-01-22T06:22:34.773Z,1.40
2023-01-22T06:23:07.508Z,1.40
2023-01-22T06:23:40.296Z,1.50
2023-01-22T06:24:13.585Z,1.50
2023-01-22T06:24:45.475Z,1.50
2023-01-22T06:25:18.391Z,1.50
2023-01-22T06:25:52.643Z,1.60
2023-01-22T06:26:24.448Z,1.40
2023-01-22T06:26:57.602Z,1.40
2023-01-22T06:27:29.507Z,1.40
2023-01-22T06:28:01.390Z,1.40
2023-01-22T06:28:34.172Z,1.40
2023-01-22T06:29:06.167Z,1.40
2023-01-22T06:29:40.075Z,1.40
2023-01-22T06:30:13.638Z,1.40
2023-01-22T06:30:45.691Z,1.40
2023-01-22T06:31:17.661Z,1.50
2023-01-22T06:31:50.581Z,1.50
2023-01-22T06:32:22.406Z,1.50
2023-01-22T06:32:54.272Z,1.50
2023-01-22T06:33:26.201Z,1.50
2023-01-22T06:33:59.009Z,1.50
2023-01-22T06:34:30.862Z,1.50
2023-01-22T06:35:03.665Z,1.50
2023-01-22T06:35:35.479Z,1.50
2023-01-22T06:36:07.910Z,1.40
2023-01-22T06:36:43.469Z,1.40
2023-01-22T06:37:15.483Z,1.40
2023-01-22T06:37:47.346Z,1.40
2023-01-22T06:38:20.138Z,1.40
2023-01-22T06:38:51.980Z,1.40
2023-01-22T06:39:26.175Z,1.40
2023-01-22T06:39:57.978Z,1.50
2023-01-22T06:40:29.806Z,1.50
2023-01-22T06:41:02.606Z,1.50
2023-01-22T06:41:34.466Z,1.50
2023-01-22T06:42:06.355Z,1.50
2023-01-22T06:42:39.101Z,1.50
2023-01-22T06:43:10.939Z,1.50
2023-01-22T06:43:43.733Z,1.50
2023-01-22T06:44:16.103Z,1.50
2023-01-22T06:44:50.493Z,1.50
2023-01-22T06:45:23.229Z,1.50
2023-01-22T06:45:55.501Z,1.60
2023-01-22T06:46:27.361Z,1.60
2023-01-22T06:47:00.156Z,1.60
2023-01-22T06:47:31.971Z,1.60
2023-01-22T06:48:04.052Z,1.60
2023-01-22T06:48:36.867Z,1.70
2023-01-22T06:49:09.714Z,1.60
2023-01-22T06:49:41.603Z,1.60
2023-01-22T06:50:14.772Z,1.70
2023-01-22T06:50:46.653Z,1.70
2023-01-22T06:51:18.554Z,1.60
2023-01-22T06:51:51.407Z,1.70
2023-01-22T06:52:23.207Z,1.70
2023-01-22T06:52:55.028Z,1.70
2023-01-22T06:53:28.336Z,1.70
2023-01-22T06:54:00.163Z,1.60
2023-01-22T06:54:33.377Z,1.70
2023-01-22T06:55:06.842Z,1.60
2023-01-22T06:55:38.711Z,1.60
2023-01-22T06:56:10.527Z,1.70
2023-01-22T06:56:43.292Z,1.70
2023-01-22T06:57:15.231Z,1.70
2023-01-22T06:57:48.017Z,1.70
2023-01-22T06:58:19.824Z,1.70
2023-01-22T06:58:51.672Z,1.80
2023-01-22T06:59:24.503Z,1.80
2023-01-22T06:59:56.311Z,1.80
2023-01-22T07:00:28.166Z,1.80
2023-01-22T07:01:02.291Z,1.80
2023-01-22T07:01:34.114Z,1.80
2023-01-22T07:02:06.073Z,1.80
2023-01-22T07:02:37.856Z,1.80
2023-01-22T07:03:10.605Z,1.80
2023-01-22T07:03:42.473Z,1.80
2023-01-22T07:04:14.339Z,1.80
2023-01-22T07:04:47.187Z,1.80
2023-01-22T07:05:19.980Z,1.80
2023-01-22T07:05:57.106Z,1.80
2023-01-22T07:06:29.877Z,1.80
2023-01-22T07:07:01.650Z,1.80
2023-01-22T07:07:33.532Z,1.90
2023-01-22T07:08:06.700Z,1.80
2023-01-22T07:08:38.563Z,1.90
2023-01-22T07:09:11.396Z,1.90
2023-01-22T07:09:44.572Z,1.90
2023-01-22T07:10:16.819Z,1.90
2023-01-22T07:10:49.764Z,1.90
2023-01-22T07:11:21.597Z,1.90
2023-01-22T07:11:53.400Z,1.90
2023-01-22T07:12:26.142Z,1.90
2023-01-22T07:12:58.941Z,1.90
2023-01-22T07:13:30.876Z,1.90
2023-01-22T07:14:03.628Z,1.90
2023-01-22T07:14:37.362Z,1.90
2023-01-22T07:15:09.935Z,1.90
2023-01-22T07:15:42.734Z,2.00
2023-01-22T07:16:14.613Z,2.00
2023-01-22T07:16:47.433Z,2.00
2023-01-22T07:17:19.211Z,2.00
2023-01-22T07:17:51.947Z,2.00
2023-01-22T07:18:24.770Z,2.00
2023-01-22T07:18:56.541Z,2.00
2023-01-22T07:19:28.324Z,1.90